This is the latest recevied weather packets stored in our database for station/object DG2MCM-11. If no packets are shown the sender has not sent any weather packets the latest 10 day(s).
| Time | Temp. | Humidity | Pressure | Rain* | Wind** | Luminosity | Snow |
|---|---|---|---|---|---|---|---|
| 1777435670 | 10.56° C | 58% | 1018.8 hPa | 0 mm | - | - | - |
| 1777435068 | 10.56° C | 58% | 1018.7 hPa | 0 mm | - | - | - |
| 1777433925 | 10.56° C | 57% | 1018.4 hPa | 0 mm | - | - | - |
| 1777433323 | 10.56° C | 57% | 1018.3 hPa | 0 mm | - | - | - |
| 1777432722 | 11.11° C | 57% | 1018.2 hPa | 0 mm | - | - | - |
| 1777432120 | 11.11° C | 56% | 1018.1 hPa | 0 mm | - | - | - |
| 1777431518 | 11.11° C | 55% | 1018 hPa | 0 mm | - | - | - |
| 1777430315 | 11.11° C | 55% | 1017.9 hPa | 0 mm | - | - | - |
| 1777429714 | 11.11° C | 55% | 1017.9 hPa | 0 mm | - | - | - |
| 1777427909 | 11.67° C | 55% | 1017.8 hPa | 0 mm | - | - | - |
| 1777426706 | 11.67° C | 54% | 1017.5 hPa | 0 mm | - | - | - |
| 1777426104 | 11.67° C | 53% | 1017.6 hPa | 0 mm | - | - | - |
| 1777423097 | 11.11° C | 60% | 1017.8 hPa | 0 mm | - | - | - |
| 1777422496 | 11.11° C | 58% | 1017.8 hPa | 0 mm | - | - | - |
| 1777421894 | 11.11° C | 55% | 1017.8 hPa | 0 mm | - | - | - |
| 1777421292 | 11.11° C | 55% | 1017.8 hPa | 0 mm | - | - | - |
| 1777420691 | 11.67° C | 55% | 1017.8 hPa | 0 mm | - | - | - |
| 1777418886 | 11.67° C | 55% | 1018 hPa | 0 mm | - | - | - |
| 1777418284 | 11.67° C | 56% | 1018 hPa | 0 mm | - | - | - |
| 1777415879 | 12.22° C | 54% | 1018 hPa | 0 mm | - | - | - |
| 1777415277 | 12.22° C | 53% | 1017.9 hPa | 0 mm | - | - | - |
| 1777414074 | 12.22° C | 56% | 1018 hPa | 0 mm | - | - | - |
| 1777413472 | 12.22° C | 58% | 1018.1 hPa | 0 mm | - | - | - |
| 1777412268 | 11.67° C | 60% | 1018.1 hPa | 0 mm | - | - | - |
| 1777411667 | 12.22° C | 59% | 1017.9 hPa | 0 mm | - | - | - |
* Rain latest hour (hover to see other rain measurements)
** Current wind speed in m/s (hover to see current wind gust speed)